Latest Weather Observations for Jabiru

IDD60801

Issued at 7:01 pm CST Saturday 1 August 2015 (issued every 30 minutes, with the page automatically refreshed every 10 minutes)

About weather observations | Map of weather stations | Latest weather observations for NT | Other Formats
Station Details ID: 014198 Name: JABIRU AIRPORT Lat: -12.66 Lon: 132.89 Height: 26.5 m
Data from the previous 72 hours. | See also: Recent months at Jabiru
Date/Time
CST
Temp
°C
App
Temp
°C
Dew
Point
Rel
Hum
%
Delta-T
°C
Wind Press
QNH
hPa
Press
MSL
hPa
Rain
since 9 am
mm
Dir
 
Spd
km/h
Gust
km/h
Spd
kts
Gust
kts
01/07:00pm 29.3 28.4 12.7 36 9.8 ENE 9 11 5 6 1012.5 1012.3 0.0
01/06:30pm 30.4 29.4 12.3 33 10.6 ENE 9 13 5 7 1012.3 1012.1 0.0
01/06:00pm 31.4 30.2 11.7 29 11.5 E 9 13 5 7 1012.3 1012.1 0.0
01/05:30pm 32.1 30.4 11.3 28 12.1 E 11 17 6 9 1012.2 1012.0 0.0
01/05:00pm 32.5 30.0 11.1 27 12.5 NE 15 24 8 13 1012.0 1011.8 0.0
01/04:30pm 32.8 30.8 10.2 25 13.0 ENE 11 17 6 9 1012.0 1011.8 0.0
01/04:00pm 32.7 30.0 8.9 23 13.4 NE 13 17 7 9 1011.9 1011.7 0.0
01/03:30pm 32.9 29.7 8.4 22 13.7 NE 15 24 8 13 1011.9 1011.7 0.0
01/03:00pm 32.6 30.3 7.4 21 13.9 NNE 9 15 5 8 1012.3 1012.1 0.0
01/02:30pm 32.3 29.4 6.5 20 14.0 ENE 11 22 6 12 1012.8 1012.6 0.0
01/02:00pm 32.2 28.5 6.4 20 13.9 E 15 24 8 13 1013.3 1013.1 0.0
01/01:30pm 31.2 28.4 7.0 22 13.1 ENE 11 20 6 11 1013.8 1013.6 0.0
01/01:00pm 31.2 27.1 6.3 21 13.3 NE 17 22 9 12 1014.5 1014.3 0.0
01/12:30pm 30.8 26.9 7.3 23 12.8 E 17 26 9 14 1015.1 1014.9 0.0
01/12:00pm 30.2 27.7 9.7 28 11.5 E 13 20 7 11 1015.6 1015.4 0.0
01/11:30am 29.9 26.3 10.5 30 11.0 ENE 20 30 11 16 1016.0 1015.8 0.0
01/11:00am 28.7 25.4 10.8 33 10.2 ESE 19 28 10 15 1016.3 1016.1 0.0
01/10:30am 28.6 25.5 11.6 34 9.8 E 19 28 10 15 1016.5 1016.3 0.0
01/10:00am 27.0 26.1 13.7 44 7.9 E 11 17 6 9 1016.7 1016.5 0.0
01/09:30am 26.0 25.1 14.8 50 6.7 E 13 19 7 10 1016.6 1016.4 0.0
01/09:00am 24.8 24.0 15.1 54 5.8 E 13 19 7 10 1016.5 1016.3 0.0
01/08:30am 23.6 22.9 15.4 60 4.9 E 13 17 7 9 1016.2 1016.0 0.0
01/08:00am 22.7 22.7 15.3 63 4.4 E 9 15 5 8 1015.9 1015.7 0.0
01/07:30am 21.5 21.4 14.9 66 3.9 ESE 9 13 5 7 1015.6 1015.4 0.0
01/07:00am 20.6 20.0 14.7 69 3.5 ESE 11 15 6 8 1015.4 1015.2 0.0
01/06:30am 20.6 20.0 14.7 69 3.5 E 11 13 6 7 1015.1 1014.9 0.0
01/06:00am 20.4 20.1 14.3 68 3.5 E 9 13 5 7 1014.7 1014.5 0.0
01/05:30am 20.6 19.8 14.0 66 3.8 E 11 15 6 8 1014.4 1014.2 0.0
01/05:00am 21.8 20.7 14.4 63 4.3 E 13 17 7 9 1014.3 1014.1 0.0
01/04:30am 21.7 21.0 14.4 63 4.3 E 11 15 6 8 1014.1 1013.9 0.0
01/04:00am 21.2 20.4 14.1 64 4.1 E 11 15 6 8 1014.1 1013.9 0.0
01/03:30am 21.3 20.6 14.2 64 4.1 ENE 11 13 6 7 1014.2 1014.0 0.0
01/03:00am 21.0 21.6 15.8 72 3.1 ENE 7 9 4 5 1014.2 1014.0 0.0
01/02:30am 21.3 23.7 16.9 76 2.7 CALM 0 4 0 2 1014.3 1014.1 0.0
01/02:00am 21.9 23.4 16.6 72 3.2 N 4 7 2 4 1014.4 1014.2 0.0
01/01:30am 22.1 24.6 17.2 74 3.0 CALM 0 0 0 0 1014.7 1014.5 0.0
01/01:00am 22.6 25.2 17.5 73 3.2 CALM 0 0 0 0 1014.9 1014.7 0.0
01/12:30am 22.9 25.5 17.4 71 3.4 CALM 0 0 0 0 1015.0 1014.8 0.0
01/12:00am 22.7 25.2 17.2 71 3.4 CALM 0 0 0 0 1014.9 1014.7 0.0
 
Date/Time
CST
Temp
°C
App
Temp
°C
Dew
Point
Rel
Hum
%
Delta-T
°C
Wind Press
QNH
hPa
Press
MSL
hPa
Rain
since 9 am
mm
Dir
 
Spd
km/h
Gust
km/h
Spd
kts
Gust
kts
31/11:30pm 23.0 24.1 17.2 70 3.6 SSW 7 9 4 5 1014.7 1014.5 0.0
31/11:00pm 24.3 25.9 17.8 67 4.1 NE 6 9 3 5 1014.4 1014.2 0.0
31/10:30pm 24.8 26.2 17.8 65 4.4 N 7 9 4 5 1014.1 1013.9 0.0
31/10:00pm 25.4 26.1 17.1 60 5.2 NW 9 11 5 6 1013.8 1013.6 0.0
31/09:30pm 26.3 27.2 16.5 54 6.1 N 7 11 4 6 1013.6 1013.4 0.0
31/09:00pm 26.8 27.3 15.5 50 6.9 NW 7 11 4 6 1013.4 1013.2 0.0
31/08:30pm 27.2 27.7 12.8 41 8.4 SE 2 6 1 3 1012.9 1012.7 0.0
31/08:00pm 27.8 27.2 12.2 38 9.1 ESE 7 9 4 5 1012.5 1012.3 0.0
31/07:30pm 28.6 28.2 12.5 37 9.4 ENE 6 7 3 4 1012.2 1012.0 0.0
31/07:00pm 29.0 28.5 12.0 35 9.9 ENE 6 7 3 4 1011.9 1011.7 0.0
31/06:30pm 30.5 29.8 11.9 31 10.9 ENE 7 11 4 6 1011.6 1011.4 0.0
31/06:00pm 31.6 30.5 11.9 30 11.6 ENE 9 15 5 8 1011.3 1011.1 0.0
31/05:30pm 32.1 30.2 11.8 29 11.9 E 13 17 7 9 1011.1 1010.9 0.0
31/05:00pm 32.5 30.4 11.1 27 12.5 ESE 13 24 7 13 1011.0 1010.8 0.0
31/04:30pm 33.4 30.8 11.9 27 12.7 ENE 17 24 9 13 1011.0 1010.8 0.0
31/04:00pm 33.0 31.4 11.5 27 12.6 NE 11 20 6 11 1010.9 1010.7 0.0
31/03:30pm 33.6 31.2 11.4 25 13.1 NE 15 28 8 15 1011.0 1010.8 0.0
31/03:00pm 33.7 30.7 12.1 27 12.8 ENE 19 32 10 17 1011.4 1011.2 0.0
31/02:30pm 33.1 29.8 11.6 27 12.7 ENE 20 28 11 15 1011.9 1011.7 0.0
31/02:00pm 32.7 29.9 11.3 27 12.5 E 17 32 9 17 1012.4 1012.2 0.0
31/01:30pm 32.4 29.7 11.6 28 12.2 E 17 30 9 16 1013.1 1012.9 0.0
31/01:00pm 32.3 28.6 11.5 28 12.2 ENE 22 32 12 17 1013.6 1013.4 0.0
31/12:30pm 31.3 27.5 11.1 29 11.7 E 22 35 12 19 1014.1 1013.9 0.0
31/12:00pm 31.0 26.8 12.4 32 11.0 ENE 26 39 14 21 1014.8 1014.6 0.0
31/11:30am 30.0 26.4 14.1 37 9.6 E 26 39 14 21 1015.3 1015.1 0.0
31/11:00am 29.7 26.9 14.3 39 9.3 ENE 22 39 12 21 1015.6 1015.4 0.0
31/10:30am 28.9 26.9 15.4 44 8.3 E 20 26 11 14 1015.9 1015.7 0.0
31/10:00am 28.4 27.6 16.0 47 7.7 E 15 20 8 11 1016.3 1016.1 0.0
31/09:30am 26.8 27.1 16.1 52 6.6 ENE 9 17 5 9 1016.6 1016.4 0.0
31/09:00am 25.1 25.4 16.0 57 5.5 E 9 11 5 6 1016.7 1016.5 0.0
31/08:30am 24.0 24.2 15.8 60 5.0 E 9 11 5 6 1016.7 1016.5 0.0
31/08:00am 22.2 23.3 15.5 66 4.0 E 4 7 2 4 1016.3 1016.1 0.0
31/07:30am 20.4 20.8 15.4 73 3.0 ESE 7 9 4 5 1016.1 1015.9 0.0
31/07:00am 19.5 19.7 14.7 74 2.8 ESE 7 9 4 5 1016.0 1015.8 0.0
31/06:30am 18.8 18.3 13.9 73 2.8 ESE 9 11 5 6 1015.8 1015.6 0.0
31/06:00am 19.9 19.7 14.7 72 3.0 SE 9 11 5 6 1015.5 1015.3 0.0
31/05:30am 20.4 20.6 14.7 70 3.3 SE 7 9 4 5 1015.3 1015.1 0.0
31/05:00am 20.5 20.3 13.7 65 3.9 ESE 7 9 4 5 1015.3 1015.1 0.0
31/04:30am 21.2 21.5 13.4 61 4.5 E 4 11 2 6 1015.5 1015.3 0.0
31/04:00am 21.2 21.8 11.8 55 5.3 CALM 0 0 0 0 1015.7 1015.5 0.0
31/03:30am 21.4 21.6 12.0 55 5.3 ENE 2 6 1 3 1015.8 1015.6 0.0
31/03:00am 21.8 22.0 10.6 49 6.1 CALM 0 0 0 0 1015.9 1015.7 0.0
31/02:30am 21.9 20.8 9.8 46 6.5 E 6 7 3 4 1016.0 1015.8 0.0
31/02:00am 23.1 21.9 10.2 44 7.1 ESE 7 11 4 6 1016.1 1015.9 0.0
31/01:30am 23.2 21.8 8.9 40 7.7 ESE 6 9 3 5 1016.3 1016.1 0.0
31/01:00am 23.1 21.4 8.4 39 7.8 ESE 7 13 4 7 1016.4 1016.2 0.0
31/12:30am 23.8 21.9 7.4 35 8.6 ESE 7 9 4 5 1016.4 1016.2 0.0
31/12:00am 25.6 23.0 7.7 32 9.5 ESE 11 20 6 11 1016.5 1016.3 0.0
 
Date/Time
CST
Temp
°C
App
Temp
°C
Dew
Point
Rel
Hum
%
Delta-T
°C
Wind Press
QNH
hPa
Press
MSL
hPa
Rain
since 9 am
mm
Dir
 
Spd
km/h
Gust
km/h
Spd
kts
Gust
kts
30/11:30pm 25.3 23.1 7.9 33 9.3 ESE 9 15 5 8 1016.6 1016.4 0.0
30/11:00pm 25.3 23.1 7.9 33 9.3 E 9 13 5 7 1016.5 1016.3 0.0
30/10:30pm 26.1 24.0 8.1 32 9.7 E 9 13 5 7 1016.5 1016.3 0.0
30/10:00pm 27.8 24.9 8.1 29 10.7 SE 13 20 7 11 1016.4 1016.2 0.0
30/09:30pm 28.0 25.5 9.8 32 10.2 ESE 13 22 7 12 1016.1 1015.9 0.0
30/09:00pm 28.1 26.1 10.3 33 10.0 ESE 11 17 6 9 1015.7 1015.5 0.0
30/08:30pm 28.7 26.4 10.4 32 10.3 SE 13 20 7 11 1015.4 1015.2 0.0
30/08:00pm 29.0 26.6 10.2 31 10.6 ESE 13 20 7 11 1015.0 1014.8 0.0
30/07:30pm 29.3 27.4 10.4 31 10.7 ESE 11 17 6 9 1014.4 1014.2 0.0
30/07:00pm 30.0 28.0 10.0 29 11.3 ESE 11 19 6 10 1014.0 1013.8 0.0
30/06:30pm 30.5 28.4 9.9 28 11.7 ESE 11 17 6 9 1013.6 1013.4 0.0
30/06:00pm 31.6 29.3 10.3 27 12.2 E 13 22 7 12 1013.2 1013.0 0.0
30/05:30pm 32.5 29.7 9.9 25 12.9 SE 15 24 8 13 1012.9 1012.7 0.0
30/05:00pm 32.9 29.8 10.3 25 13.0 E 17 26 9 14 1012.8 1012.6 0.0
30/04:30pm 32.7 29.7 10.7 26 12.7 ESE 17 28 9 15 1012.7 1012.5 0.0
30/04:00pm 33.3 31.0 11.8 27 12.7 ESE 15 26 8 14 1012.7 1012.5 0.0
30/03:30pm 33.0 30.2 11.5 27 12.6 ESE 17 30 9 16 1012.8 1012.6 0.0
30/03:00pm 33.3 30.6 11.8 27 12.7 E 17 26 9 14 1013.1 1012.9 0.0
30/02:30pm 33.9 30.8 11.7 26 13.1 E 19 33 10 18 1013.6 1013.4 0.0
30/02:00pm 33.3 30.8 12.3 28 12.5 E 17 28 9 15 1014.1 1013.9 0.0
30/01:30pm 32.2 29.0 11.9 29 11.9 E 20 32 11 17 1014.6 1014.4 0.0
30/01:00pm 31.6 27.8 12.4 31 11.4 E 24 35 13 19 1015.3 1015.1 0.0
30/12:30pm 32.3 28.8 13.5 32 11.3 ENE 24 35 13 19 1015.9 1015.7 0.0
30/12:00pm 31.9 29.1 15.4 37 10.2 E 24 39 13 21 1016.2 1016.0 0.0
30/11:30am 30.8 27.4 14.8 37 9.8 E 26 39 14 21 1016.7 1016.5 0.0
30/11:00am 30.6 27.5 15.5 40 9.3 E 26 39 14 21 1017.0 1016.8 0.0
30/10:30am 29.8 27.3 16.2 43 8.5 E 24 35 13 19 1017.3 1017.1 0.0
30/10:26am 28.8 26.0 15.3 43 8.3 E 24 35 13 19 1017.3 1017.1 0.0
30/10:06am 28.8 25.6 15.3 43 8.3 E 26 48 14 26 1017.4 1017.2 0.0
30/10:00am 28.7 26.7 15.6 45 8.1 E 20 30 11 16 1017.4 1017.2 0.0
30/09:30am 28.0 26.8 16.0 48 7.4 ENE 17 30 9 16 1017.4 1017.2 0.0
30/09:00am 26.1 26.2 16.4 55 6.0 E 11 17 6 9 1017.2 1017.0 0.0
30/08:30am 24.2 25.1 16.7 63 4.6 E 7 9 4 5 1017.0 1016.8 0.0
30/08:00am 22.4 23.2 16.4 69 3.6 NE 7 7 4 4 1016.9 1016.7 0.0
30/07:30am 20.8 21.5 16.0 74 2.9 N 7 9 4 5 1016.7 1016.5 0.0
30/07:00am 20.2 20.8 15.8 76 2.6 E 7 9 4 5 1016.5 1016.3 0.0
30/06:30am 21.4 22.2 16.4 73 3.0 E 7 11 4 6 1016.5 1016.3 0.0
30/06:00am 21.4 22.1 16.1 72 3.2 E 7 9 4 5 1016.4 1016.2 0.0
30/05:30am 21.4 22.1 16.1 72 3.2 E 7 9 4 5 1016.4 1016.2 0.0
30/05:00am 21.7 22.0 16.0 70 3.4 ENE 9 13 5 7 1016.3 1016.1 0.0
30/04:30am 21.8 21.9 15.6 68 3.7 E 9 11 5 6 1016.2 1016.0 0.0
30/04:00am 21.8 21.8 15.2 66 3.9 ENE 9 13 5 7 1016.4 1016.2 0.0
30/03:30am 21.9 21.6 14.5 63 4.3 NE 9 11 5 6 1016.5 1016.3 0.0
30/03:00am 23.0 23.3 14.6 59 5.0 NE 6 9 3 5 1016.4 1016.2 0.0
30/02:30am 23.3 23.3 14.3 57 5.3 E 7 11 4 6 1016.7 1016.5 0.0
30/02:00am 24.0 23.6 14.1 54 5.8 ESE 9 13 5 7 1017.0 1016.8 0.0
30/01:30am 24.4 23.8 13.6 51 6.3 ESE 9 15 5 8 1017.1 1016.9 0.0
30/01:00am 24.6 24.0 13.5 50 6.5 ESE 9 15 5 8 1017.3 1017.1 0.0
30/12:30am 24.9 24.1 12.8 47 7.0 E 9 13 5 7 1017.4 1017.2 0.0
30/12:00am 25.4 24.5 12.6 45 7.4 E 9 11 5 6 1017.5 1017.3 0.0
 
Date/Time
CST
Temp
°C
App
Temp
°C
Dew
Point
Rel
Hum
%
Delta-T
°C
Wind Press
QNH
hPa
Press
MSL
hPa
Rain
since 9 am
mm
Dir
 
Spd
km/h
Gust
km/h
Spd
kts
Gust
kts
29/11:30pm 26.7 25.5 12.7 42 8.1 ESE 11 20 6 11 1017.5 1017.3 0.0
29/11:00pm 26.2 24.9 12.6 43 7.9 ESE 11 15 6 8 1017.4 1017.2 0.0
29/10:30pm 26.2 25.5 11.9 41 8.2 E 7 9 4 5 1017.3 1017.1 0.0
29/10:00pm 27.1 25.5 11.6 38 8.9 ESE 11 15 6 8 1017.2 1017.0 0.0
29/09:30pm 28.1 26.5 11.6 36 9.5 ESE 11 20 6 11 1017.0 1016.8 0.0
29/09:00pm 28.4 26.5 11.9 36 9.5 SE 13 20 7 11 1016.6 1016.4 0.0
29/08:30pm 28.8 26.8 11.4 34 10.0 SE 13 22 7 12 1016.2 1016.0 0.0
29/08:00pm 28.8 27.3 11.8 35 9.8 SE 11 20 6 11 1015.8 1015.6 0.0
29/07:30pm 29.1 27.9 11.6 33 10.1 SE 9 15 5 8 1015.4 1015.2 0.0

Other Formats:

Comma delimited format used in spreadsheet applications
http://www.bom.gov.au/fwo/IDD60801/IDD60801.94137.axf

JavaScript Object Notation format (JSON) in row-major order
http://www.bom.gov.au/fwo/IDD60801/IDD60801.94137.json